Terminal Aerodrome Forecast
Issued by NWS

Home | Current Version | Previous Version | Text Only | Print | Product List | Glossary On
Versions: 1 2 3 4 5 6 7 8 9 10 11 12 13
000
FTUS45 KVEF 170538
TAFVGT
TAF
KVGT 170538Z 1706/1806 34016G26KT P6SM SCT090 BKN120
     FM172100 35011KT P6SM SCT120 SCT250
     FM180300 34008KT P6SM SKC=

USA.gov is the U.S. government's official web portal to all federal, state and local government web resources and services.